Latest Weather Observations for Viewbank

IDV60801

Issued at 9:35 am EDT Friday 21 November 2014 (issued every 30 minutes, with the page automatically refreshed every 10 minutes)

About weather observations | Map of weather stations | Latest weather observations for VIC | Other Formats
Station Details ID: 086068 Name: VIEWBANK Lat: -37.74 Lon: 145.10 Height: 66.1 m
Data from the previous 72 hours. | See also: Recent months at Viewbank
Date/Time
EDT
Temp
°C
App
Temp
°C
Dew
Point
Rel
Hum
%
Delta-T
°C
Wind Press
QNH
hPa
Press
MSL
hPa
Rain
since 9 am
mm
Dir
 
Spd
km/h
Gust
km/h
Spd
kts
Gust
kts
21/09:30am 17.0 14.1 11.1 68 3.2 SW 17 26 9 14 1011.3 1011.2 0.0
21/09:00am 16.7 13.9 11.4 71 2.9 WSW 17 28 9 15 1010.9 1010.8 1.4
21/08:30am 16.5 14.0 13.4 82 1.7 WSW 19 32 10 17 1011.0 1010.9 1.4
21/08:00am 16.7 14.3 12.8 78 2.2 WSW 17 24 9 13 1010.1 1010.0 1.4
21/07:30am 16.6 15.0 12.9 79 2.1 W 13 26 7 14 1009.4 1009.3 1.4
21/07:00am 16.5 15.8 13.2 81 1.9 W 9 17 5 9 1009.0 1008.9 1.4
21/06:30am 16.3 15.2 13.2 82 1.7 W 11 19 6 10 1008.6 1008.5 1.4
21/06:00am 16.1 14.7 13.4 84 1.5 WSW 13 20 7 11 1008.3 1008.2 1.4
21/05:30am 16.2 14.6 13.9 86 1.3 WSW 15 22 8 12 1008.0 1007.9 1.4
21/05:00am 16.3 14.7 14.0 86 1.3 WSW 15 24 8 13 1007.5 1007.4 1.4
21/04:30am 16.6 15.4 13.9 84 1.5 WSW 13 22 7 12 1006.8 1006.7 1.4
21/04:00am 16.9 15.6 13.8 82 1.8 WSW 13 24 7 13 1006.6 1006.5 1.4
21/03:30am 17.5 15.8 14.8 84 1.6 SW 17 26 9 14 1005.9 1005.8 1.4
21/03:00am 19.7 19.5 15.6 77 2.4 NNW 11 19 6 10 1005.2 1005.1 1.4
21/02:30am 19.9 19.6 15.5 76 2.6 NNW 11 15 6 8 1005.3 1005.2 1.4
21/02:00am 19.7 19.2 15.8 78 2.3 NNW 13 20 7 11 1005.3 1005.2 1.4
21/01:30am 19.5 19.0 15.8 79 2.2 NNW 13 20 7 11 1005.2 1005.1 1.4
21/01:00am 19.3 19.3 16.2 82 1.9 N 11 15 6 8 1005.4 1005.3 1.4
21/12:30am 19.1 20.4 16.1 83 1.8 NNE 4 9 2 5 1005.7 1005.6 1.4
21/12:00am 19.4 20.3 16.2 82 1.9 NNE 6 9 3 5 1005.9 1005.8 1.4
 
Date/Time
EDT
Temp
°C
App
Temp
°C
Dew
Point
Rel
Hum
%
Delta-T
°C
Wind Press
QNH
hPa
Press
MSL
hPa
Rain
since 9 am
mm
Dir
 
Spd
km/h
Gust
km/h
Spd
kts
Gust
kts
20/11:30pm 19.6 20.3 16.1 80 2.1 N 7 15 4 8 1006.1 1006.0 1.4
20/11:00pm 19.9 20.1 15.7 77 2.5 N 9 17 5 9 1006.3 1006.2 1.4
20/10:30pm 20.1 19.9 15.7 76 2.6 N 11 19 6 10 1006.5 1006.4 1.4
20/10:00pm 20.2 20.2 16.2 78 2.4 N 11 17 6 9 1006.9 1006.8 1.4
20/09:30pm 19.6 20.7 17.9 90 1.0 N 9 13 5 7 1006.9 1006.8 1.4
20/09:00pm 19.0 20.8 18.8 99 0.1 NE 7 13 4 7 1006.9 1006.8 1.2
20/08:30pm 19.5 21.6 19.3 99 0.1 ENE 7 11 4 6 1006.8 1006.7 0.6
20/08:00pm 19.5 22.2 19.5 100 0.0 NE 4 7 2 4 1006.9 1006.8 0.4
20/07:30pm 19.8 22.2 19.6 99 0.1 NE 6 9 3 5 1007.2 1007.1 0.4
20/07:00pm 19.9 22.3 19.7 99 0.1 NNE 6 9 3 5 1007.3 1007.2 0.4
20/06:30pm 20.1 21.8 19.3 95 0.5 ENE 9 13 5 7 1007.2 1007.1 0.4
20/06:00pm 20.8 22.5 18.4 86 1.5 ENE 7 11 4 6 1006.9 1006.8 0.2
20/05:30pm 22.3 23.2 16.1 68 3.8 ESE 6 7 3 4 1006.8 1006.7 0.0
20/05:00pm 23.4 23.8 15.2 60 4.9 SW 7 13 4 7 1006.8 1006.7 0.0
20/04:30pm 24.4 22.9 14.2 53 6.0 WSW 15 24 8 13 1006.7 1006.6 0.0
20/04:00pm 25.4 22.3 13.3 47 7.1 WSW 22 39 12 21 1006.4 1006.3 0.0
20/03:30pm 26.3 24.6 12.4 42 8.1 SW 13 20 7 11 1005.7 1005.6 0.0
20/03:00pm 26.9 24.8 11.0 37 9.1 SW 13 20 7 11 1005.3 1005.2 0.0
20/02:30pm 28.6 26.1 6.7 25 11.7 NNW 9 13 5 7 1004.4 1004.3 0.0
20/02:00pm 28.1 23.6 6.2 25 11.6 N 19 26 10 14 1004.5 1004.4 0.0
20/01:30pm 27.5 23.5 6.8 27 11.0 N 17 33 9 18 1004.7 1004.6 0.0
20/01:00pm 27.5 22.9 5.7 25 11.4 N 19 33 10 18 1005.1 1005.0 0.0
20/12:30pm 27.2 22.4 4.9 24 11.4 N 19 30 10 16 1005.7 1005.6 0.0
20/12:00pm 27.6 21.3 4.0 22 12.0 N 26 43 14 23 1005.9 1005.8 0.0
20/11:30am 27.8 20.1 3.5 21 12.2 N 33 52 18 28 1005.7 1005.6 0.0
20/11:00am 29.5 22.1 4.2 20 13.0 N 32 65 17 35 1005.8 1005.7 0.0
20/10:30am 28.3 21.3 3.9 21 12.4 N 30 52 16 28 1006.1 1006.0 0.0
20/10:00am 27.1 20.3 2.9 21 12.0 N 28 50 15 27 1006.4 1006.3 0.0
20/09:57am 27.1 20.4 3.6 22 11.8 N 28 50 15 27 1006.4 1006.3 0.0
20/09:30am 26.7 21.3 4.5 24 11.3 N 22 41 12 22 1007.0 1006.9 0.0
20/09:00am 26.7 21.6 3.2 22 11.7 NNE 19 37 10 20 1006.9 1006.8 0.0
20/08:30am 25.4 20.3 4.0 25 10.7 N 20 39 11 21 1007.3 1007.2 0.0
20/08:00am 25.3 19.8 3.9 25 10.7 N 22 35 12 19 1007.3 1007.2 0.0
20/07:30am 24.2 19.3 4.0 27 10.0 N 19 39 10 21 1007.2 1007.1 0.0
20/07:00am 22.0 19.1 4.6 32 8.6 NNE 9 20 5 11 1007.3 1007.2 0.0
20/06:30am 20.9 18.9 4.5 34 8.0 NE 4 9 2 5 1007.5 1007.4 0.0
20/06:00am 21.1 19.4 4.2 33 8.2 NNE 2 6 1 3 1007.4 1007.3 0.0
20/05:30am 20.8 18.0 5.2 36 7.7 ENE 9 13 5 7 1007.1 1007.0 0.0
20/05:00am 21.1 19.4 4.2 33 8.2 NE 2 6 1 3 1007.5 1007.4 0.0
20/04:30am 21.4 18.8 4.0 32 8.4 NE 7 11 4 6 1007.6 1007.5 0.0
20/04:00am 21.1 18.6 4.6 34 8.1 NE 7 13 4 7 1007.8 1007.7 0.0
20/03:30am 19.7 17.4 5.0 38 7.2 NNE 6 9 3 5 1008.1 1008.0 0.0
20/03:00am 18.4 16.3 6.6 46 5.9 ENE 7 9 4 5 1008.3 1008.2 0.0
20/02:30am 18.3 15.9 6.8 47 5.8 ENE 9 13 5 7 1008.6 1008.5 0.0
20/02:00am 18.6 16.4 6.4 45 6.1 ENE 7 9 4 5 1008.8 1008.7 0.0
20/01:30am 18.4 16.3 6.6 46 5.9 ENE 7 11 4 6 1009.3 1009.2 0.0
20/01:00am 18.9 16.6 5.7 42 6.5 NE 7 11 4 6 1010.1 1010.0 0.0
20/12:30am 18.9 16.9 6.1 43 6.3 NE 6 9 3 5 1010.4 1010.3 0.0
20/12:00am 19.5 18.2 5.9 41 6.8 NE 2 6 1 3 1011.0 1010.9 0.0
 
Date/Time
EDT
Temp
°C
App
Temp
°C
Dew
Point
Rel
Hum
%
Delta-T
°C
Wind Press
QNH
hPa
Press
MSL
hPa
Rain
since 9 am
mm
Dir
 
Spd
km/h
Gust
km/h
Spd
kts
Gust
kts
19/11:30pm 20.0 17.9 6.0 40 7.0 NNE 6 7 3 4 1011.1 1011.0 0.0
19/11:00pm 21.2 19.0 5.1 35 8.0 NNE 6 11 3 6 1011.6 1011.5 0.0
19/10:30pm 22.4 18.9 5.4 33 8.5 N 13 20 7 11 1011.6 1011.5 0.0
19/10:00pm 23.0 19.8 5.0 31 9.0 N 11 17 6 9 1011.7 1011.6 0.0
19/09:30pm 23.8 20.2 5.2 30 9.4 N 13 20 7 11 1011.8 1011.7 0.0
19/09:00pm 24.2 21.0 5.1 29 9.6 N 11 17 6 9 1011.4 1011.3 0.0
19/08:30pm 25.2 21.6 4.9 27 10.3 N 13 17 7 9 1011.6 1011.5 0.0
19/08:00pm 25.6 22.7 4.7 26 10.6 N 9 17 5 9 1011.6 1011.5 0.0
19/07:30pm 26.6 23.0 5.0 25 11.0 N 13 24 7 13 1011.6 1011.5 0.0
19/07:00pm 27.1 23.3 6.0 26 11.0 N 15 26 8 14 1011.8 1011.7 0.0
19/06:30pm 27.9 24.0 5.5 24 11.6 N 15 30 8 16 1011.6 1011.5 0.0
19/06:00pm 27.9 23.7 5.5 24 11.6 N 17 33 9 18 1011.6 1011.5 0.0
19/05:30pm 28.2 23.7 6.3 25 11.6 N 19 35 10 19 1011.8 1011.7 0.0
19/05:00pm 28.1 24.3 5.6 24 11.7 N 15 24 8 13 1012.4 1012.2 0.0
19/04:30pm 28.2 24.1 6.3 25 11.6 N 17 28 9 15 1012.9 1012.7 0.0
19/04:00pm 27.5 23.4 6.3 26 11.1 N 17 28 9 15 1013.2 1013.0 0.0
19/03:30pm 28.4 24.7 6.5 25 11.6 N 15 26 8 14 1013.5 1013.3 0.0
19/03:00pm 28.3 24.5 5.8 24 11.8 NNW 15 26 8 14 1014.1 1013.9 0.0
19/02:30pm 27.9 24.6 8.2 29 10.7 N 15 30 8 16 1014.4 1014.2 0.0
19/02:00pm 26.6 24.2 7.1 29 10.3 N 9 28 5 15 1014.7 1014.5 0.0
19/01:30pm 26.0 23.8 6.1 28 10.3 NNE 7 17 4 9 1015.7 1015.5 0.0
19/01:00pm 25.3 21.8 5.5 28 10.1 NW 13 19 7 10 1016.5 1016.4 0.0
19/12:30pm 24.2 21.9 5.5 30 9.5 S 7 11 4 6 1016.9 1016.8 0.0
19/12:00pm 23.3 21.5 7.8 37 8.2 N 7 15 4 8 1017.4 1017.3 0.0
19/11:30am 22.1 20.3 9.3 44 6.9 E 9 17 5 9 1017.8 1017.7 0.0
19/11:00am 20.5 18.5 8.8 47 6.2 NE 9 13 5 7 1018.5 1018.4 0.0
19/10:30am 18.8 17.6 10.4 58 4.5 NE 7 13 4 7 1018.7 1018.6 0.0
19/10:00am 17.3 16.4 10.7 65 3.5 NE 6 11 3 6 1019.2 1019.1 0.0
19/09:30am 15.8 14.5 10.1 69 3.0 E 7 11 4 6 1019.6 1019.5 0.0
19/09:00am 14.3 12.2 9.9 75 2.3 E 11 15 6 8 1019.9 1019.8 0.0
19/08:30am 13.3 12.2 10.8 85 1.3 ENE 7 11 4 6 1020.0 1019.9 0.0
19/08:00am 12.0 11.4 11.8 99 0.1 E 6 7 3 4 1019.9 1019.8 0.0
19/07:30am 10.1 8.8 10.1 100 0.0 ENE 7 7 4 4 1020.0 1019.9 0.0
19/07:00am 8.5 7.8 8.5 100 0.0 ENE 2 6 1 3 1019.9 1019.8 0.0
19/06:30am 8.1 7.7 8.1 100 0.0 CALM 0 0 0 0 1020.0 1019.9 0.0
19/06:00am 8.2 7.4 8.2 100 0.0 NE 2 7 1 4 1020.0 1019.9 0.0
19/05:30am 8.7 8.4 8.7 100 0.0 CALM 0 0 0 0 1019.9 1019.8 0.0
19/05:00am 9.2 9.0 9.2 100 0.0 CALM 0 0 0 0 1019.9 1019.8 0.0
19/04:30am 9.7 9.6 9.6 99 0.1 CALM 0 0 0 0 1020.1 1020.0 0.0
19/04:00am 10.1 9.7 9.9 99 0.1 NE 2 6 1 3 1020.4 1020.3 0.0
19/03:30am 10.7 10.5 10.5 99 0.1 ENE 2 7 1 4 1020.5 1020.4 0.0
19/03:00am 11.3 11.5 10.7 96 0.3 CALM 0 0 0 0 1020.9 1020.8 0.0
19/02:30am 11.8 12.0 10.5 92 0.7 CALM 0 0 0 0 1021.2 1021.1 0.0
19/02:00am 12.3 11.4 10.7 90 0.8 E 6 9 3 5 1021.3 1021.2 0.0
19/01:30am 12.5 11.6 10.7 89 0.9 ESE 6 11 3 6 1021.6 1021.5 0.0
19/01:00am 12.8 12.3 10.7 87 1.1 SE 4 7 2 4 1022.0 1021.9 0.0
19/12:30am 12.7 12.9 10.6 87 1.1 CALM 0 0 0 0 1022.4 1022.3 0.0
19/12:00am 13.0 11.8 10.4 84 1.3 S 7 11 4 6 1022.5 1022.4 0.0
 
Date/Time
EDT
Temp
°C
App
Temp
°C
Dew
Point
Rel
Hum
%
Delta-T
°C
Wind Press
QNH
hPa
Press
MSL
hPa
Rain
since 9 am
mm
Dir
 
Spd
km/h
Gust
km/h
Spd
kts
Gust
kts
18/11:30pm 13.2 12.2 10.2 82 1.6 SSW 6 7 3 4 1022.6 1022.5 0.0
18/11:00pm 13.5 12.2 9.9 79 1.9 S 7 13 4 7 1022.6 1022.5 0.0
18/10:30pm 13.2 12.2 10.4 83 1.5 S 6 7 3 4 1022.8 1022.7 0.0
18/10:00pm 13.7 12.4 9.9 78 2.0 SSE 7 13 4 7 1022.5 1022.4 0.0
18/09:30pm 14.1 13.0 9.9 76 2.2 S 6 13 3 7 1022.2 1022.1 0.0
18/09:00pm 14.8 13.0 10.8 77 2.1 SSW 11 15 6 8 1021.6 1021.5 0.0
18/08:30pm 15.4 13.0 10.2 71 2.7 SSW 13 22 7 12 1021.5 1021.4 0.0
18/08:00pm 16.5 13.0 8.7 60 4.0 S 17 24 9 13 1021.1 1021.0 0.0
18/07:30pm 17.7 14.3 7.7 52 5.1 S 15 24 8 13 1020.6 1020.5 0.0
18/07:00pm 18.6 14.8 7.4 48 5.7 S 17 26 9 14 1020.2 1020.1 0.0
18/06:30pm 19.1 15.5 6.9 45 6.2 S 15 20 8 11 1019.6 1019.5 0.0
18/06:00pm 19.5 16.3 6.9 44 6.4 SSW 13 19 7 10 1019.7 1019.6 0.0
18/05:30pm 19.9 16.4 7.0 43 6.6 SSW 15 22 8 12 1019.6 1019.5 0.0
18/05:00pm 20.6 18.2 8.6 46 6.3 S 11 19 6 10 1019.7 1019.6 0.0
18/04:30pm 20.3 16.8 7.3 43 6.7 SW 15 24 8 13 1019.7 1019.6 0.0
18/04:00pm 20.1 17.0 7.1 43 6.6 S 13 22 7 12 1019.8 1019.7 0.0
18/03:30pm 19.5 16.9 7.9 47 6.0 SSW 11 22 6 12 1020.2 1020.1 0.0
18/03:00pm 19.4 16.0 7.5 46 6.1 SSW 15 22 8 12 1020.3 1020.2 0.0
18/02:30pm 19.1 16.0 7.2 46 6.0 SW 13 22 7 12 1020.7 1020.6 0.0
18/02:00pm 18.8 15.8 7.9 49 5.6 SSW 13 24 7 13 1020.9 1020.8 0.0
18/01:30pm 18.6 15.9 7.4 48 5.7 WSW 11 17 6 9 1020.9 1020.8 0.0
18/01:00pm 17.7 14.8 6.6 48 5.5 SSW 11 19 6 10 1021.0 1020.9 0.0
18/12:30pm 17.3 14.8 6.5 49 5.3 SW 9 17 5 9 1021.2 1021.1 0.0
18/12:00pm 16.8 14.1 7.2 53 4.8 SW 11 20 6 11 1021.5 1021.4 0.0
18/11:30am 16.5 13.8 7.2 54 4.6 SW 11 22 6 12 1021.5 1021.4 0.0
18/11:00am 15.4 12.1 6.4 55 4.4 SSW 13 19 7 10 1021.5 1021.4 0.0
18/10:30am 15.6 12.6 6.1 53 4.6 SSW 11 15 6 8 1021.2 1021.1 0.0
18/10:00am 15.3 12.4 6.3 55 4.4 SW 11 17 6 9 1021.2 1021.1 0.0

Other Formats:

Comma delimited format used in spreadsheet applications
http://www.bom.gov.au/fwo/IDV60801/IDV60801.95874.axf

JavaScript Object Notation format (JSON) in row-major order
http://www.bom.gov.au/fwo/IDV60801/IDV60801.95874.json